sensor_id;sensor_type;location;lat;lon;timestamp;temperature;humidity
6486;DHT22;3276;48.490;9.222;2023-07-13T00:02:23;19.80;6.50
6486;DHT22;3276;48.490;9.222;2023-07-13T00:04:48;19.70;7.40
6486;DHT22;3276;48.490;9.222;2023-07-13T00:07:14;19.70;7.30
6486;DHT22;3276;48.490;9.222;2023-07-13T00:09:40;19.60;8.00
6486;DHT22;3276;48.490;9.222;2023-07-13T00:12:26;19.60;7.30
6486;DHT22;3276;48.490;9.222;2023-07-13T00:14:52;19.50;7.60
6486;DHT22;3276;48.490;9.222;2023-07-13T00:17:18;19.40;8.70
6486;DHT22;3276;48.490;9.222;2023-07-13T00:19:43;19.40;8.60
6486;DHT22;3276;48.490;9.222;2023-07-13T00:22:09;19.30;9.70
6486;DHT22;3276;48.490;9.222;2023-07-13T00:24:34;19.30;9.50
6486;DHT22;3276;48.490;9.222;2023-07-13T00:27:01;19.20;10.60
6486;DHT22;3276;48.490;9.222;2023-07-13T00:29:26;19.20;10.00
6486;DHT22;3276;48.490;9.222;2023-07-13T00:31:52;19.10;11.50
6486;DHT22;3276;48.490;9.222;2023-07-13T00:34:17;19.00;10.70
6486;DHT22;3276;48.490;9.222;2023-07-13T00:36:43;19.00;10.10
6486;DHT22;3276;48.490;9.222;2023-07-13T00:39:09;19.00;11.10
6486;DHT22;3276;48.490;9.222;2023-07-13T00:41:35;18.90;9.40
6486;DHT22;3276;48.490;9.222;2023-07-13T00:44:02;18.90;9.60
6486;DHT22;3276;48.490;9.222;2023-07-13T00:46:30;19.00;9.60
6486;DHT22;3276;48.490;9.222;2023-07-13T00:49:00;19.00;9.60
6486;DHT22;3276;48.490;9.222;2023-07-13T00:51:31;19.10;9.90
6486;DHT22;3276;48.490;9.222;2023-07-13T00:54:00;19.00;9.50
6486;DHT22;3276;48.490;9.222;2023-07-13T00:56:27;19.00;9.30
6486;DHT22;3276;48.490;9.222;2023-07-13T00:58:54;19.10;9.90
6486;DHT22;3276;48.490;9.222;2023-07-13T01:01:20;19.10;10.20
6486;DHT22;3276;48.490;9.222;2023-07-13T01:03:46;19.10;8.60
6486;DHT22;3276;48.490;9.222;2023-07-13T01:06:12;19.20;8.70
6486;DHT22;3276;48.490;9.222;2023-07-13T01:08:38;19.20;8.20
6486;DHT22;3276;48.490;9.222;2023-07-13T01:11:05;19.30;8.60
6486;DHT22;3276;48.490;9.222;2023-07-13T01:13:33;19.40;7.60
6486;DHT22;3276;48.490;9.222;2023-07-13T01:16:03;19.40;7.20
6486;DHT22;3276;48.490;9.222;2023-07-13T01:18:31;19.40;7.10
6486;DHT22;3276;48.490;9.222;2023-07-13T01:20:59;19.50;7.20
6486;DHT22;3276;48.490;9.222;2023-07-13T01:23:27;19.50;6.20
6486;DHT22;3276;48.490;9.222;2023-07-13T01:25:53;19.40;6.30
6486;DHT22;3276;48.490;9.222;2023-07-13T01:28:21;19.40;5.20
6486;DHT22;3276;48.490;9.222;2023-07-13T01:30:47;19.30;5.30
6486;DHT22;3276;48.490;9.222;2023-07-13T01:33:15;19.30;5.20
6486;DHT22;3276;48.490;9.222;2023-07-13T01:35:42;19.30;5.30
6486;DHT22;3276;48.490;9.222;2023-07-13T01:38:08;19.30;7.10
6486;DHT22;3276;48.490;9.222;2023-07-13T01:40:35;19.30;6.00
6486;DHT22;3276;48.490;9.222;2023-07-13T01:43:02;19.40;5.90
6486;DHT22;3276;48.490;9.222;2023-07-13T01:45:28;19.40;6.30
6486;DHT22;3276;48.490;9.222;2023-07-13T01:47:54;19.40;5.10
6486;DHT22;3276;48.490;9.222;2023-07-13T01:50:19;19.40;3.80
6486;DHT22;3276;48.490;9.222;2023-07-13T01:52:45;19.50;4.70
6486;DHT22;3276;48.490;9.222;2023-07-13T01:55:11;19.50;4.80
6486;DHT22;3276;48.490;9.222;2023-07-13T01:57:36;19.50;5.20
6486;DHT22;3276;48.490;9.222;2023-07-13T02:00:06;19.50;4.80
6486;DHT22;3276;48.490;9.222;2023-07-13T02:02:32;19.50;4.90
6486;DHT22;3276;48.490;9.222;2023-07-13T02:04:58;19.50;5.40
6486;DHT22;3276;48.490;9.222;2023-07-13T02:07:24;19.40;7.20
6486;DHT22;3276;48.490;9.222;2023-07-13T02:09:49;19.30;8.10
6486;DHT22;3276;48.490;9.222;2023-07-13T02:12:15;19.20;8.60
6486;DHT22;3276;48.490;9.222;2023-07-13T02:14:40;19.00;9.10
6486;DHT22;3276;48.490;9.222;2023-07-13T02:17:06;18.90;10.30
6486;DHT22;3276;48.490;9.222;2023-07-13T02:19:32;18.90;11.00
6486;DHT22;3276;48.490;9.222;2023-07-13T02:21:58;18.80;11.10
6486;DHT22;3276;48.490;9.222;2023-07-13T02:24:23;18.80;11.00
6486;DHT22;3276;48.490;9.222;2023-07-13T02:26:49;18.70;11.60
6486;DHT22;3276;48.490;9.222;2023-07-13T02:29:15;18.70;11.60
6486;DHT22;3276;48.490;9.222;2023-07-13T02:31:40;18.60;12.10
6486;DHT22;3276;48.490;9.222;2023-07-13T02:34:06;18.60;12.70
6486;DHT22;3276;48.490;9.222;2023-07-13T02:36:32;18.50;13.40
6486;DHT22;3276;48.490;9.222;2023-07-13T02:39:01;18.40;14.20
6486;DHT22;3276;48.490;9.222;2023-07-13T02:41:28;18.30;13.50
6486;DHT22;3276;48.490;9.222;2023-07-13T02:43:54;18.30;13.50
6486;DHT22;3276;48.490;9.222;2023-07-13T02:46:28;18.20;14.00
6486;DHT22;3276;48.490;9.222;2023-07-13T02:48:54;18.20;14.50
6486;DHT22;3276;48.490;9.222;2023-07-13T02:51:20;18.10;15.20
6486;DHT22;3276;48.490;9.222;2023-07-13T02:53:45;17.90;15.10
6486;DHT22;3276;48.490;9.222;2023-07-13T02:56:11;17.90;15.80
6486;DHT22;3276;48.490;9.222;2023-07-13T02:58:36;17.70;16.70
6486;DHT22;3276;48.490;9.222;2023-07-13T03:01:07;17.60;17.10
6486;DHT22;3276;48.490;9.222;2023-07-13T03:03:33;17.50;18.30
6486;DHT22;3276;48.490;9.222;2023-07-13T03:06:00;17.40;18.90
6486;DHT22;3276;48.490;9.222;2023-07-13T03:08:26;17.30;19.10
6486;DHT22;3276;48.490;9.222;2023-07-13T03:11:10;17.20;19.20
6486;DHT22;3276;48.490;9.222;2023-07-13T03:13:37;17.20;19.60
6486;DHT22;3276;48.490;9.222;2023-07-13T03:16:03;17.20;19.20
6486;DHT22;3276;48.490;9.222;2023-07-13T03:18:29;17.20;19.00
6486;DHT22;3276;48.490;9.222;2023-07-13T03:20:54;17.10;19.30
6486;DHT22;3276;48.490;9.222;2023-07-13T03:23:21;17.10;19.70
6486;DHT22;3276;48.490;9.222;2023-07-13T03:25:46;17.10;19.50
6486;DHT22;3276;48.490;9.222;2023-07-13T03:28:12;17.00;19.90
6486;DHT22;3276;48.490;9.222;2023-07-13T03:30:38;16.90;20.00
6486;DHT22;3276;48.490;9.222;2023-07-13T03:33:04;16.90;19.30
6486;DHT22;3276;48.490;9.222;2023-07-13T03:35:29;16.90;19.50
6486;DHT22;3276;48.490;9.222;2023-07-13T03:37:55;16.90;20.40
6486;DHT22;3276;48.490;9.222;2023-07-13T03:40:22;16.80;20.00
6486;DHT22;3276;48.490;9.222;2023-07-13T03:42:47;16.80;19.90
6486;DHT22;3276;48.490;9.222;2023-07-13T03:45:13;16.80;19.70
6486;DHT22;3276;48.490;9.222;2023-07-13T03:47:38;16.80;19.60
6486;DHT22;3276;48.490;9.222;2023-07-13T03:50:04;16.80;19.40
6486;DHT22;3276;48.490;9.222;2023-07-13T03:52:30;16.80;19.80
6486;DHT22;3276;48.490;9.222;2023-07-13T03:54:56;16.80;20.10
6486;DHT22;3276;48.490;9.222;2023-07-13T03:57:21;16.70;20.10
6486;DHT22;3276;48.490;9.222;2023-07-13T03:59:48;16.80;20.40
6486;DHT22;3276;48.490;9.222;2023-07-13T04:02:14;16.70;20.80
6486;DHT22;3276;48.490;9.222;2023-07-13T04:04:39;16.70;20.90
6486;DHT22;3276;48.490;9.222;2023-07-13T04:07:06;16.70;20.20
6486;DHT22;3276;48.490;9.222;2023-07-13T04:09:34;16.70;20.00
6486;DHT22;3276;48.490;9.222;2023-07-13T04:11:59;16.70;19.90
6486;DHT22;3276;48.490;9.222;2023-07-13T04:14:25;16.70;20.10
6486;DHT22;3276;48.490;9.222;2023-07-13T04:16:51;16.80;19.90
6486;DHT22;3276;48.490;9.222;2023-07-13T04:19:16;16.90;19.90
6486;DHT22;3276;48.490;9.222;2023-07-13T04:21:42;16.90;19.20
6486;DHT22;3276;48.490;9.222;2023-07-13T04:24:08;17.10;18.90
6486;DHT22;3276;48.490;9.222;2023-07-13T04:26:34;17.10;18.90
6486;DHT22;3276;48.490;9.222;2023-07-13T04:29:01;17.10;18.50
6486;DHT22;3276;48.490;9.222;2023-07-13T04:31:29;17.10;18.30
6486;DHT22;3276;48.490;9.222;2023-07-13T04:33:54;17.20;18.00
6486;DHT22;3276;48.490;9.222;2023-07-13T04:36:20;17.10;18.90
6486;DHT22;3276;48.490;9.222;2023-07-13T04:38:46;17.20;17.70
6486;DHT22;3276;48.490;9.222;2023-07-13T04:41:13;17.20;17.50
6486;DHT22;3276;48.490;9.222;2023-07-13T04:43:39;17.20;17.30
6486;DHT22;3276;48.490;9.222;2023-07-13T04:46:06;17.30;16.20
6486;DHT22;3276;48.490;9.222;2023-07-13T04:48:32;17.20;16.70
6486;DHT22;3276;48.490;9.222;2023-07-13T04:50:59;17.30;16.30
6486;DHT22;3276;48.490;9.222;2023-07-13T04:53:25;17.40;16.70
6486;DHT22;3276;48.490;9.222;2023-07-13T04:55:51;17.40;15.20
6486;DHT22;3276;48.490;9.222;2023-07-13T04:58:17;17.50;14.80
6486;DHT22;3276;48.490;9.222;2023-07-13T05:00:42;17.50;14.80
6486;DHT22;3276;48.490;9.222;2023-07-13T05:03:08;17.60;14.20
6486;DHT22;3276;48.490;9.222;2023-07-13T05:05:34;17.60;14.20
6486;DHT22;3276;48.490;9.222;2023-07-13T05:08:00;17.70;14.90
6486;DHT22;3276;48.490;9.222;2023-07-13T05:10:25;17.80;14.40
6486;DHT22;3276;48.490;9.222;2023-07-13T05:12:51;17.80;13.60
6486;DHT22;3276;48.490;9.222;2023-07-13T05:15:17;17.80;14.00
6486;DHT22;3276;48.490;9.222;2023-07-13T05:17:49;17.90;14.20
6486;DHT22;3276;48.490;9.222;2023-07-13T05:20:15;18.10;13.60
6486;DHT22;3276;48.490;9.222;2023-07-13T05:22:42;18.30;13.40
6486;DHT22;3276;48.490;9.222;2023-07-13T05:25:08;18.30;12.10
6486;DHT22;3276;48.490;9.222;2023-07-13T05:27:34;18.30;11.70
6486;DHT22;3276;48.490;9.222;2023-07-13T05:30:01;18.40;11.30
6486;DHT22;3276;48.490;9.222;2023-07-13T05:32:26;18.40;11.40
6486;DHT22;3276;48.490;9.222;2023-07-13T05:34:52;18.50;11.90
6486;DHT22;3276;48.490;9.222;2023-07-13T05:37:18;18.70;11.40
6486;DHT22;3276;48.490;9.222;2023-07-13T05:39:44;19.00;11.00
6486;DHT22;3276;48.490;9.222;2023-07-13T05:42:09;19.10;9.60
6486;DHT22;3276;48.490;9.222;2023-07-13T05:44:35;19.30;8.10
6486;DHT22;3276;48.490;9.222;2023-07-13T05:47:01;20.90;5.90
6486;DHT22;3276;48.490;9.222;2023-07-13T05:49:27;21.20;3.10
6486;DHT22;3276;48.490;9.222;2023-07-13T05:51:52;21.00;2.70
6486;DHT22;3276;48.490;9.222;2023-07-13T05:54:18;20.80;3.20
6486;DHT22;3276;48.490;9.222;2023-07-13T05:56:44;20.80;3.00
6486;DHT22;3276;48.490;9.222;2023-07-13T05:59:09;22.30;1.70
6486;DHT22;3276;48.490;9.222;2023-07-13T06:01:35;24.70;1.00
6486;DHT22;3276;48.490;9.222;2023-07-13T06:04:01;27.20;1.00
6486;DHT22;3276;48.490;9.222;2023-07-13T06:06:26;28.60;1.00
6486;DHT22;3276;48.490;9.222;2023-07-13T06:08:52;28.80;1.00
6486;DHT22;3276;48.490;9.222;2023-07-13T06:11:23;29.20;1.00
6486;DHT22;3276;48.490;9.222;2023-07-13T06:13:49;29.50;1.00
6486;DHT22;3276;48.490;9.222;2023-07-13T06:16:16;28.40;1.00
6486;DHT22;3276;48.490;9.222;2023-07-13T06:18:42;28.60;1.00
6486;DHT22;3276;48.490;9.222;2023-07-13T06:21:14;28.50;1.00
6486;DHT22;3276;48.490;9.222;2023-07-13T06:23:40;29.90;1.00
6486;DHT22;3276;48.490;9.222;2023-07-13T06:26:06;30.00;1.00
6486;DHT22;3276;48.490;9.222;2023-07-13T06:28:33;31.40;1.00
6486;DHT22;3276;48.490;9.222;2023-07-13T06:30:59;32.90;1.00
6486;DHT22;3276;48.490;9.222;2023-07-13T06:33:25;34.80;1.00
6486;DHT22;3276;48.490;9.222;2023-07-13T06:35:51;34.40;1.00
6486;DHT22;3276;48.490;9.222;2023-07-13T06:38:17;36.10;1.00
6486;DHT22;3276;48.490;9.222;2023-07-13T06:40:43;37.10;1.00
6486;DHT22;3276;48.490;9.222;2023-07-13T06:43:08;37.60;1.00
6486;DHT22;3276;48.490;9.222;2023-07-13T06:45:43;37.10;1.00
6486;DHT22;3276;48.490;9.222;2023-07-13T06:48:11;36.70;1.00
6486;DHT22;3276;48.490;9.222;2023-07-13T06:50:37;37.40;1.00
6486;DHT22;3276;48.490;9.222;2023-07-13T06:53:02;38.10;1.00
6486;DHT22;3276;48.490;9.222;2023-07-13T06:55:28;38.20;1.00
6486;DHT22;3276;48.490;9.222;2023-07-13T06:57:53;37.50;1.00
6486;DHT22;3276;48.490;9.222;2023-07-13T07:00:19;37.20;1.00
6486;DHT22;3276;48.490;9.222;2023-07-13T07:02:45;36.90;1.00
6486;DHT22;3276;48.490;9.222;2023-07-13T07:05:10;37.60;1.00
6486;DHT22;3276;48.490;9.222;2023-07-13T07:07:36;38.80;1.00
6486;DHT22;3276;48.490;9.222;2023-07-13T07:10:02;37.60;1.00
6486;DHT22;3276;48.490;9.222;2023-07-13T07:12:28;37.40;1.00
6486;DHT22;3276;48.490;9.222;2023-07-13T07:14:54;37.70;1.00
6486;DHT22;3276;48.490;9.222;2023-07-13T07:17:19;38.10;1.00
6486;DHT22;3276;48.490;9.222;2023-07-13T07:19:45;38.90;1.00
6486;DHT22;3276;48.490;9.222;2023-07-13T07:22:11;38.10;1.00
6486;DHT22;3276;48.490;9.222;2023-07-13T07:24:37;36.70;1.00
6486;DHT22;3276;48.490;9.222;2023-07-13T07:27:02;35.90;1.00
6486;DHT22;3276;48.490;9.222;2023-07-13T07:29:28;37.40;1.00
6486;DHT22;3276;48.490;9.222;2023-07-13T07:31:54;39.20;1.00
6486;DHT22;3276;48.490;9.222;2023-07-13T07:34:19;38.70;1.00
6486;DHT22;3276;48.490;9.222;2023-07-13T07:36:45;37.90;1.00
6486;DHT22;3276;48.490;9.222;2023-07-13T07:39:11;37.60;1.00
6486;DHT22;3276;48.490;9.222;2023-07-13T07:41:37;38.20;1.00
6486;DHT22;3276;48.490;9.222;2023-07-13T07:44:03;38.60;1.00
6486;DHT22;3276;48.490;9.222;2023-07-13T07:46:29;37.80;1.00
6486;DHT22;3276;48.490;9.222;2023-07-13T07:48:56;36.60;1.00
6486;DHT22;3276;48.490;9.222;2023-07-13T07:51:21;36.70;1.00
6486;DHT22;3276;48.490;9.222;2023-07-13T07:53:47;37.10;1.00
6486;DHT22;3276;48.490;9.222;2023-07-13T07:56:13;37.20;1.00
6486;DHT22;3276;48.490;9.222;2023-07-13T07:58:38;36.20;1.00
6486;DHT22;3276;48.490;9.222;2023-07-13T08:01:05;34.50;1.00
6486;DHT22;3276;48.490;9.222;2023-07-13T08:03:31;33.20;1.00
6486;DHT22;3276;48.490;9.222;2023-07-13T08:05:57;32.20;1.00
6486;DHT22;3276;48.490;9.222;2023-07-13T08:08:23;31.80;1.00
6486;DHT22;3276;48.490;9.222;2023-07-13T08:10:48;31.10;1.00
6486;DHT22;3276;48.490;9.222;2023-07-13T08:13:14;31.20;1.00
6486;DHT22;3276;48.490;9.222;2023-07-13T08:15:40;31.90;1.00
6486;DHT22;3276;48.490;9.222;2023-07-13T08:18:05;32.90;1.00
6486;DHT22;3276;48.490;9.222;2023-07-13T08:20:31;34.50;1.00
6486;DHT22;3276;48.490;9.222;2023-07-13T08:22:57;35.80;1.00
6486;DHT22;3276;48.490;9.222;2023-07-13T08:25:22;36.60;1.00
6486;DHT22;3276;48.490;9.222;2023-07-13T08:27:48;36.30;1.00
6486;DHT22;3276;48.490;9.222;2023-07-13T08:30:14;35.80;1.00
6486;DHT22;3276;48.490;9.222;2023-07-13T08:32:39;35.90;1.00
6486;DHT22;3276;48.490;9.222;2023-07-13T08:35:05;37.40;1.00
6486;DHT22;3276;48.490;9.222;2023-07-13T08:37:31;38.00;1.00
6486;DHT22;3276;48.490;9.222;2023-07-13T08:39:57;39.00;1.00
6486;DHT22;3276;48.490;9.222;2023-07-13T08:45:29;39.40;1.00
6486;DHT22;3276;48.490;9.222;2023-07-13T08:48:13;38.80;1.00
6486;DHT22;3276;48.490;9.222;2023-07-13T08:50:49;39.50;1.00
6486;DHT22;3276;48.490;9.222;2023-07-13T08:53:17;40.10;1.00
6486;DHT22;3276;48.490;9.222;2023-07-13T08:55:44;39.00;1.00
6486;DHT22;3276;48.490;9.222;2023-07-13T08:58:13;38.10;1.00
6486;DHT22;3276;48.490;9.222;2023-07-13T09:03:22;37.90;1.00
6486;DHT22;3276;48.490;9.222;2023-07-13T09:05:58;36.60;1.00
6486;DHT22;3276;48.490;9.222;2023-07-13T09:11:22;39.90;1.00
6486;DHT22;3276;48.490;9.222;2023-07-13T09:16:36;39.10;1.00
6486;DHT22;3276;48.490;9.222;2023-07-13T09:19:08;37.70;1.00
6486;DHT22;3276;48.490;9.222;2023-07-13T09:21:42;34.60;1.00
6486;DHT22;3276;48.490;9.222;2023-07-13T09:24:38;32.10;1.00
6486;DHT22;3276;48.490;9.222;2023-07-13T09:27:29;30.40;1.00
6486;DHT22;3276;48.490;9.222;2023-07-13T09:32:31;27.90;1.00
6486;DHT22;3276;48.490;9.222;2023-07-13T09:34:58;27.30;1.00
6486;DHT22;3276;48.490;9.222;2023-07-13T09:37:30;27.00;1.00
6486;DHT22;3276;48.490;9.222;2023-07-13T09:39:56;26.90;1.00
6486;DHT22;3276;48.490;9.222;2023-07-13T09:42:25;26.70;1.00
6486;DHT22;3276;48.490;9.222;2023-07-13T09:44:56;26.60;1.00
6486;DHT22;3276;48.490;9.222;2023-07-13T09:47:24;26.60;1.00
6486;DHT22;3276;48.490;9.222;2023-07-13T09:49:58;26.40;1.00
6486;DHT22;3276;48.490;9.222;2023-07-13T09:52:25;26.60;1.00
6486;DHT22;3276;48.490;9.222;2023-07-13T09:54:53;26.60;1.00
6486;DHT22;3276;48.490;9.222;2023-07-13T09:57:26;26.20;1.00
6486;DHT22;3276;48.490;9.222;2023-07-13T09:59:53;26.50;1.00
6486;DHT22;3276;48.490;9.222;2023-07-13T10:02:30;26.80;1.00
6486;DHT22;3276;48.490;9.222;2023-07-13T10:05:04;27.00;1.00
6486;DHT22;3276;48.490;9.222;2023-07-13T10:07:31;27.00;1.00
6486;DHT22;3276;48.490;9.222;2023-07-13T10:09:59;27.00;1.00
6486;DHT22;3276;48.490;9.222;2023-07-13T10:12:26;26.60;1.00
6486;DHT22;3276;48.490;9.222;2023-07-13T10:14:55;26.60;1.00
6486;DHT22;3276;48.490;9.222;2023-07-13T10:17:30;26.60;1.00
6486;DHT22;3276;48.490;9.222;2023-07-13T10:20:03;26.70;1.00
6486;DHT22;3276;48.490;9.222;2023-07-13T10:22:55;26.90;1.00
6486;DHT22;3276;48.490;9.222;2023-07-13T10:25:26;26.60;1.00
6486;DHT22;3276;48.490;9.222;2023-07-13T10:28:06;26.40;1.00
6486;DHT22;3276;48.490;9.222;2023-07-13T10:30:40;26.20;1.00
6486;DHT22;3276;48.490;9.222;2023-07-13T10:33:10;25.60;1.00
6486;DHT22;3276;48.490;9.222;2023-07-13T10:35:38;25.60;1.00
6486;DHT22;3276;48.490;9.222;2023-07-13T10:38:10;25.90;1.00
6486;DHT22;3276;48.490;9.222;2023-07-13T10:43:13;26.20;1.00
6486;DHT22;3276;48.490;9.222;2023-07-13T10:45:40;26.80;1.00
6486;DHT22;3276;48.490;9.222;2023-07-13T10:48:09;26.80;1.00
6486;DHT22;3276;48.490;9.222;2023-07-13T10:50:38;26.90;1.00
6486;DHT22;3276;48.490;9.222;2023-07-13T10:53:21;26.90;1.00
6486;DHT22;3276;48.490;9.222;2023-07-13T11:03:31;26.90;1.00
6486;DHT22;3276;48.490;9.222;2023-07-13T11:11:38;27.30;1.00
6486;DHT22;3276;48.490;9.222;2023-07-13T11:14:25;27.30;1.00
6486;DHT22;3276;48.490;9.222;2023-07-13T11:16:51;27.20;1.00
6486;DHT22;3276;48.490;9.222;2023-07-13T11:24:29;27.30;1.00
6486;DHT22;3276;48.490;9.222;2023-07-13T11:26:55;27.50;1.00
6486;DHT22;3276;48.490;9.222;2023-07-13T11:32:01;27.50;1.00
6486;DHT22;3276;48.490;9.222;2023-07-13T11:34:35;27.80;1.00
6486;DHT22;3276;48.490;9.222;2023-07-13T11:37:02;27.40;1.00
6486;DHT22;3276;48.490;9.222;2023-07-13T11:39:36;27.30;1.00
6486;DHT22;3276;48.490;9.222;2023-07-13T11:42:16;27.10;1.00
6486;DHT22;3276;48.490;9.222;2023-07-13T11:44:48;27.00;1.00
6486;DHT22;3276;48.490;9.222;2023-07-13T11:47:21;27.10;1.00
6486;DHT22;3276;48.490;9.222;2023-07-13T11:49:53;27.40;1.00
6486;DHT22;3276;48.490;9.222;2023-07-13T11:52:33;27.60;1.00
6486;DHT22;3276;48.490;9.222;2023-07-13T11:55:01;27.90;1.00
6486;DHT22;3276;48.490;9.222;2023-07-13T11:59:54;27.60;1.00
6486;DHT22;3276;48.490;9.222;2023-07-13T12:02:31;27.90;1.00
6486;DHT22;3276;48.490;9.222;2023-07-13T12:04:59;28.60;1.00
6486;DHT22;3276;48.490;9.222;2023-07-13T12:07:29;28.70;1.00
6486;DHT22;3276;48.490;9.222;2023-07-13T12:10:42;28.40;1.00
6486;DHT22;3276;48.490;9.222;2023-07-13T12:12:53;28.60;1.00
6486;DHT22;3276;48.490;9.222;2023-07-13T12:15:21;28.70;1.00
6486;DHT22;3276;48.490;9.222;2023-07-13T12:17:48;28.80;1.00
6486;DHT22;3276;48.490;9.222;2023-07-13T12:20:26;28.90;1.00
6486;DHT22;3276;48.490;9.222;2023-07-13T12:22:53;29.10;1.00
6486;DHT22;3276;48.490;9.222;2023-07-13T12:25:19;29.20;1.00
6486;DHT22;3276;48.490;9.222;2023-07-13T12:27:50;28.80;1.00
6486;DHT22;3276;48.490;9.222;2023-07-13T12:30:29;29.00;1.00
6486;DHT22;3276;48.490;9.222;2023-07-13T12:33:07;29.20;1.00
6486;DHT22;3276;48.490;9.222;2023-07-13T12:35:40;28.80;1.00
6486;DHT22;3276;48.490;9.222;2023-07-13T12:38:10;28.30;1.00
6486;DHT22;3276;48.490;9.222;2023-07-13T12:40:36;27.70;1.00
6486;DHT22;3276;48.490;9.222;2023-07-13T12:43:03;27.30;1.00
6486;DHT22;3276;48.490;9.222;2023-07-13T12:45:30;27.30;1.00
6486;DHT22;3276;48.490;9.222;2023-07-13T12:48:15;27.50;1.00
6486;DHT22;3276;48.490;9.222;2023-07-13T12:50:46;27.50;1.00
6486;DHT22;3276;48.490;9.222;2023-07-13T12:53:19;27.90;1.00
6486;DHT22;3276;48.490;9.222;2023-07-13T12:55:53;27.80;1.00
6486;DHT22;3276;48.490;9.222;2023-07-13T12:58:27;28.00;1.00
6486;DHT22;3276;48.490;9.222;2023-07-13T13:00:58;28.10;1.00
6486;DHT22;3276;48.490;9.222;2023-07-13T13:03:31;28.10;1.00
6486;DHT22;3276;48.490;9.222;2023-07-13T13:06:06;28.00;1.00
6486;DHT22;3276;48.490;9.222;2023-07-13T13:08:33;27.80;1.00
6486;DHT22;3276;48.490;9.222;2023-07-13T13:10:59;27.60;1.00
6486;DHT22;3276;48.490;9.222;2023-07-13T13:13:26;27.60;1.00
6486;DHT22;3276;48.490;9.222;2023-07-13T13:15:51;27.70;1.00
6486;DHT22;3276;48.490;9.222;2023-07-13T13:18:21;28.10;1.00
6486;DHT22;3276;48.490;9.222;2023-07-13T13:20:48;28.30;1.00
6486;DHT22;3276;48.490;9.222;2023-07-13T13:23:19;28.30;1.00
6486;DHT22;3276;48.490;9.222;2023-07-13T13:25:49;28.30;1.00
6486;DHT22;3276;48.490;9.222;2023-07-13T13:28:18;27.90;1.00
6486;DHT22;3276;48.490;9.222;2023-07-13T13:30:46;27.80;1.00
6486;DHT22;3276;48.490;9.222;2023-07-13T13:33:15;27.80;1.00
6486;DHT22;3276;48.490;9.222;2023-07-13T13:35:41;27.60;1.00
6486;DHT22;3276;48.490;9.222;2023-07-13T13:38:19;27.50;1.00
6486;DHT22;3276;48.490;9.222;2023-07-13T13:40:45;27.70;1.00
6486;DHT22;3276;48.490;9.222;2023-07-13T13:43:20;27.80;1.00
6486;DHT22;3276;48.490;9.222;2023-07-13T13:45:46;28.40;1.00
6486;DHT22;3276;48.490;9.222;2023-07-13T13:48:20;28.50;1.00
6486;DHT22;3276;48.490;9.222;2023-07-13T13:50:48;28.70;1.00
6486;DHT22;3276;48.490;9.222;2023-07-13T13:53:14;28.70;1.00
6486;DHT22;3276;48.490;9.222;2023-07-13T13:55:40;28.50;1.00
6486;DHT22;3276;48.490;9.222;2023-07-13T13:58:08;28.40;1.00
6486;DHT22;3276;48.490;9.222;2023-07-13T14:00:33;28.30;1.00
6486;DHT22;3276;48.490;9.222;2023-07-13T14:02:59;27.80;1.00
6486;DHT22;3276;48.490;9.222;2023-07-13T14:05:25;27.80;1.00
6486;DHT22;3276;48.490;9.222;2023-07-13T14:07:52;28.20;1.00
6486;DHT22;3276;48.490;9.222;2023-07-13T14:10:19;28.30;1.00
6486;DHT22;3276;48.490;9.222;2023-07-13T14:12:51;28.20;1.00
6486;DHT22;3276;48.490;9.222;2023-07-13T14:17:51;27.50;1.00
6486;DHT22;3276;48.490;9.222;2023-07-13T14:20:18;28.00;1.00
6486;DHT22;3276;48.490;9.222;2023-07-13T14:22:45;28.20;1.00
6486;DHT22;3276;48.490;9.222;2023-07-13T14:25:14;28.10;1.00
6486;DHT22;3276;48.490;9.222;2023-07-13T14:27:41;28.30;1.00
6486;DHT22;3276;48.490;9.222;2023-07-13T14:30:21;28.60;1.00
6486;DHT22;3276;48.490;9.222;2023-07-13T14:32:48;28.40;1.00
6486;DHT22;3276;48.490;9.222;2023-07-13T14:35:16;28.20;1.00
6486;DHT22;3276;48.490;9.222;2023-07-13T14:37:43;27.50;1.00
6486;DHT22;3276;48.490;9.222;2023-07-13T14:40:14;27.50;1.00
6486;DHT22;3276;48.490;9.222;2023-07-13T14:42:40;27.60;1.00
6486;DHT22;3276;48.490;9.222;2023-07-13T14:45:13;27.50;1.00
6486;DHT22;3276;48.490;9.222;2023-07-13T14:47:38;27.40;1.00
6486;DHT22;3276;48.490;9.222;2023-07-13T14:50:04;27.30;1.00
6486;DHT22;3276;48.490;9.222;2023-07-13T14:52:30;27.10;1.00
6486;DHT22;3276;48.490;9.222;2023-07-13T14:54:56;27.00;1.00
6486;DHT22;3276;48.490;9.222;2023-07-13T14:57:21;27.30;1.00
6486;DHT22;3276;48.490;9.222;2023-07-13T14:59:48;27.40;1.00
6486;DHT22;3276;48.490;9.222;2023-07-13T15:02:18;27.70;1.00
6486;DHT22;3276;48.490;9.222;2023-07-13T15:04:44;27.80;1.00
6486;DHT22;3276;48.490;9.222;2023-07-13T15:07:11;27.80;1.00
6486;DHT22;3276;48.490;9.222;2023-07-13T15:09:36;27.80;1.00
6486;DHT22;3276;48.490;9.222;2023-07-13T15:12:02;27.70;1.00
6486;DHT22;3276;48.490;9.222;2023-07-13T15:14:28;27.70;1.00
6486;DHT22;3276;48.490;9.222;2023-07-13T15:16:55;27.90;1.00
6486;DHT22;3276;48.490;9.222;2023-07-13T15:19:21;27.90;1.00
6486;DHT22;3276;48.490;9.222;2023-07-13T15:21:49;27.70;1.00
6486;DHT22;3276;48.490;9.222;2023-07-13T15:24:16;27.60;1.00
6486;DHT22;3276;48.490;9.222;2023-07-13T15:26:42;27.50;1.00
6486;DHT22;3276;48.490;9.222;2023-07-13T15:29:11;27.40;1.00
6486;DHT22;3276;48.490;9.222;2023-07-13T15:31:36;27.30;1.00
6486;DHT22;3276;48.490;9.222;2023-07-13T15:34:10;27.20;1.00
6486;DHT22;3276;48.490;9.222;2023-07-13T15:36:36;26.90;1.00
6486;DHT22;3276;48.490;9.222;2023-07-13T15:39:02;26.60;1.00
6486;DHT22;3276;48.490;9.222;2023-07-13T15:41:28;26.50;1.00
6486;DHT22;3276;48.490;9.222;2023-07-13T15:43:56;26.60;1.00
6486;DHT22;3276;48.490;9.222;2023-07-13T15:46:27;26.80;1.00
6486;DHT22;3276;48.490;9.222;2023-07-13T15:48:54;27.00;1.00
6486;DHT22;3276;48.490;9.222;2023-07-13T15:51:30;27.40;1.00
6486;DHT22;3276;48.490;9.222;2023-07-13T15:54:01;27.40;1.00
6486;DHT22;3276;48.490;9.222;2023-07-13T15:56:36;27.70;1.00
6486;DHT22;3276;48.490;9.222;2023-07-13T15:59:02;27.60;1.00
6486;DHT22;3276;48.490;9.222;2023-07-13T16:01:29;27.40;1.00
6486;DHT22;3276;48.490;9.222;2023-07-13T16:03:55;27.20;1.00
6486;DHT22;3276;48.490;9.222;2023-07-13T16:06:24;27.10;1.00
6486;DHT22;3276;48.490;9.222;2023-07-13T16:08:51;27.10;1.00
6486;DHT22;3276;48.490;9.222;2023-07-13T16:11:29;27.00;1.00
6486;DHT22;3276;48.490;9.222;2023-07-13T16:13:58;26.90;1.00
6486;DHT22;3276;48.490;9.222;2023-07-13T16:16:27;26.60;1.00
6486;DHT22;3276;48.490;9.222;2023-07-13T16:18:54;26.30;1.00
6486;DHT22;3276;48.490;9.222;2023-07-13T16:21:27;26.20;1.00
6486;DHT22;3276;48.490;9.222;2023-07-13T16:23:54;26.20;1.00
6486;DHT22;3276;48.490;9.222;2023-07-13T16:26:36;26.30;1.00
6486;DHT22;3276;48.490;9.222;2023-07-13T16:29:19;26.50;1.00
6486;DHT22;3276;48.490;9.222;2023-07-13T16:32:13;26.40;1.00
6486;DHT22;3276;48.490;9.222;2023-07-13T16:34:43;26.60;1.00
6486;DHT22;3276;48.490;9.222;2023-07-13T16:39:42;26.90;1.00
6486;DHT22;3276;48.490;9.222;2023-07-13T16:42:10;27.00;1.00
6486;DHT22;3276;48.490;9.222;2023-07-13T16:44:37;26.80;1.00
6486;DHT22;3276;48.490;9.222;2023-07-13T16:47:08;26.70;1.00
6486;DHT22;3276;48.490;9.222;2023-07-13T16:49:37;26.80;1.00
6486;DHT22;3276;48.490;9.222;2023-07-13T16:52:03;26.70;1.00
6486;DHT22;3276;48.490;9.222;2023-07-13T16:54:35;26.80;1.00
6486;DHT22;3276;48.490;9.222;2023-07-13T16:57:05;26.60;1.00
6486;DHT22;3276;48.490;9.222;2023-07-13T16:59:33;26.20;1.00
6486;DHT22;3276;48.490;9.222;2023-07-13T17:02:02;26.10;1.00
6486;DHT22;3276;48.490;9.222;2023-07-13T17:04:29;25.90;1.00
6486;DHT22;3276;48.490;9.222;2023-07-13T17:06:58;25.90;1.00